Time;durP1;ratioP1;P1;durP2;ratioP2;P2;SDS_P1;SDS_P2;PMS_P1;PMS_P2;Temp;Humidity;BMP_temperature;BMP_pressure;BME280_temperature;BME280_humidity;BME280_pressure;Samples;Min_cycle;Max_cycle;Signal;HPM_P1;HPM_P2
2021/01/03 00:00:32;;;;;;;6.93;6.33;;;;;16.80;100278.00;;;;2063254;28;20265;-50
2021/01/03 00:01:32;;;;;;;7.00;6.40;;;;;16.80;100271.00;;;;2063455;28;20211;-50
2021/01/03 00:02:32;;;;;;;7.10;6.40;;;;;16.80;100275.00;;;;2063368;28;20219;-53
2021/01/03 00:03:33;;;;;;;7.03;6.43;;;;;16.80;100274.00;;;;2062633;28;20219;-51
2021/01/03 00:04:37;;;;;;;6.70;6.07;;;;;16.80;100272.00;;;;2062776;28;20215;-50
2021/01/03 00:05:38;;;;;;;7.57;6.88;;;;;16.80;100275.00;;;;2063111;28;20692;-50
2021/01/03 00:06:38;;;;;;;7.20;6.57;;;;;16.80;100266.00;;;;2063271;28;20253;-50
2021/01/03 00:07:39;;;;;;;8.10;6.70;;;;;16.80;100262.00;;;;2062636;28;20311;-53
2021/01/03 00:08:39;;;;;;;7.20;6.60;;;;;16.80;100270.00;;;;2063095;28;20576;-51
2021/01/03 00:09:39;;;;;;;6.60;6.10;;;;;16.80;100260.00;;;;2063289;28;20627;-50
2021/01/03 00:10:40;;;;;;;6.90;6.30;;;;;16.80;100268.00;;;;2063202;28;21031;-50
2021/01/03 00:11:40;;;;;;;6.87;6.27;;;;;16.80;100258.00;;;;2063269;28;20595;-50
2021/01/03 00:12:40;;;;;;;6.90;6.30;;;;;16.80;100262.00;;;;2063225;28;20298;-51
2021/01/03 00:13:41;;;;;;;6.90;6.30;;;;;16.80;100261.00;;;;2063255;28;20223;-52
2021/01/03 00:14:41;;;;;;;7.30;6.70;;;;;16.80;100262.00;;;;2062622;28;20223;-51
2021/01/03 00:15:41;;;;;;;7.63;6.93;;;;;16.80;100258.00;;;;2063117;28;20285;-51
2021/01/03 00:16:45;;;;;;;6.87;6.27;;;;;16.80;100251.00;;;;2062989;28;20323;-51
2021/01/03 00:17:46;;;;;;;7.50;6.80;;;;;16.80;100261.00;;;;2062428;28;20226;-55
2021/01/03 00:18:46;;;;;;;6.60;6.00;;;;;16.80;100255.00;;;;2063149;28;20219;-53
2021/01/03 00:19:46;;;;;;;7.30;6.60;;;;;16.80;100248.00;;;;2063186;28;20211;-52
2021/01/03 00:20:47;;;;;;;6.83;6.23;;;;;16.80;100250.00;;;;2063168;28;20223;-52
2021/01/03 00:21:48;;;;;;;7.80;7.10;;;;;16.80;100248.00;;;;2062646;28;20724;-52
2021/01/03 00:22:49;;;;;;;7.15;6.55;;;;;16.80;100239.00;;;;2063100;28;20705;-51
2021/01/03 00:23:49;;;;;;;7.30;6.70;;;;;16.80;100253.00;;;;2063104;28;20227;-50
2021/01/03 00:24:49;;;;;;;7.50;6.80;;;;;16.80;100251.00;;;;2062705;28;20226;-52
2021/01/03 00:25:50;;;;;;;7.37;6.70;;;;;16.80;100255.00;;;;2063290;28;20358;-52
2021/01/03 00:26:51;;;;;;;6.70;6.10;;;;;16.80;100256.00;;;;2062903;28;20274;-50
2021/01/03 00:27:52;;;;;;;7.43;6.82;;;;;16.80;100251.00;;;;2063023;28;20208;-52
2021/01/03 00:28:52;;;;;;;7.18;6.63;;;;;16.80;100257.00;;;;2063019;28;20235;-52
2021/01/03 00:29:53;;;;;;;7.33;6.70;;;;;16.80;100260.00;;;;2062992;28;20811;-50
2021/01/03 00:30:54;;;;;;;7.45;6.80;;;;;16.80;100260.00;;;;2062624;28;20635;-50
2021/01/03 00:31:54;;;;;;;6.73;6.23;;;;;16.80;100259.00;;;;2063225;28;20238;-51
2021/01/03 00:32:55;;;;;;;7.00;6.40;;;;;16.80;100256.00;;;;2063127;28;20215;-51
2021/01/03 00:33:55;;;;;;;7.00;6.40;;;;;16.80;100259.00;;;;2063076;28;20216;-49
2021/01/03 00:34:55;;;;;;;6.90;6.30;;;;;16.80;100263.00;;;;2062496;28;20223;-52
2021/01/03 00:35:56;;;;;;;7.13;6.53;;;;;16.80;100259.00;;;;2063279;28;20219;-53
2021/01/03 00:36:56;;;;;;;8.40;7.53;;;;;16.80;100252.00;;;;2062608;28;20231;-50
2021/01/03 00:38:01;;;;;;;7.80;7.13;;;;;16.80;100258.00;;;;2062609;28;20230;-52
2021/01/03 00:39:03;;;;;;;7.40;6.70;;;;;16.80;100252.00;;;;2062626;28;20219;-50
2021/01/03 00:40:05;;;;;;;7.07;6.47;;;;;16.80;100253.00;;;;2062666;28;20242;-50
2021/01/03 00:41:06;;;;;;;6.78;6.18;;;;;16.80;100255.00;;;;2062216;28;20219;-52
2021/01/03 00:42:06;;;;;;;7.27;6.67;;;;;16.80;100250.00;;;;2062431;28;20695;-52
2021/01/03 00:43:07;;;;;;;7.40;6.80;;;;;16.80;100256.00;;;;2062245;28;20604;-52
2021/01/03 00:44:07;;;;;;;7.00;6.40;;;;;16.80;100252.00;;;;2062653;28;20270;-50
2021/01/03 00:45:08;;;;;;;7.27;6.57;;;;;16.80;100256.00;;;;2061455;28;20831;-54
2021/01/03 00:46:09;;;;;;;6.50;5.90;;;;;16.80;100251.00;;;;2062406;28;20234;-50
2021/01/03 00:47:09;;;;;;;6.93;6.23;;;;;16.80;100262.00;;;;2061917;28;20250;-50
2021/01/03 00:48:10;;;;;;;7.50;6.80;;;;;16.80;100261.00;;;;2062336;28;20231;-51
2021/01/03 00:49:10;;;;;;;7.10;6.50;;;;;16.80;100262.00;;;;2054086;28;20223;-51
2021/01/03 00:50:11;;;;;;;7.80;7.10;;;;;16.80;100260.00;;;;2063080;28;20220;-51
2021/01/03 00:51:11;;;;;;;7.93;7.13;;;;;16.80;100259.00;;;;2062954;28;20230;-50
2021/01/03 00:52:12;;;;;;;6.83;6.23;;;;;16.80;100255.00;;;;2063075;28;20684;-50
2021/01/03 00:53:12;;;;;;;8.00;7.30;;;;;16.80;100252.00;;;;2062759;28;20641;-51
2021/01/03 00:54:12;;;;;;;7.00;6.40;;;;;16.80;100254.00;;;;2063077;28;20278;-52
2021/01/03 00:55:13;;;;;;;7.13;6.53;;;;;16.80;100250.00;;;;2062520;28;20229;-50
2021/01/03 00:56:13;;;;;;;6.60;6.10;;;;;16.80;100253.00;;;;2063083;28;20230;-50
2021/01/03 00:57:13;;;;;;;6.93;6.40;;;;;16.80;100249.00;;;;2062847;28;20328;-51
2021/01/03 00:58:14;;;;;;;7.20;6.60;;;;;16.80;100252.00;;;;2062805;28;20218;-52
2021/01/03 00:59:14;;;;;;;7.40;6.70;;;;;16.80;100255.00;;;;2063021;28;20218;-51
2021/01/03 01:00:20;;;;;;;7.40;6.70;;;;;16.80;100254.00;;;;2062819;28;20619;-52
2021/01/03 01:01:21;;;;;;;7.40;6.70;;;;;16.80;100253.00;;;;2055744;28;20233;-52
2021/01/03 01:02:21;;;;;;;7.07;6.40;;;;;16.80;100259.00;;;;2070333;28;20265;-52
2021/01/03 01:03:21;;;;;;;7.60;6.90;;;;;16.80;100251.00;;;;2070733;28;20257;-51
2021/01/03 01:04:22;;;;;;;7.17;6.57;;;;;16.80;100250.00;;;;2071196;28;20219;-51
2021/01/03 01:05:23;;;;;;;7.03;6.40;;;;;16.80;100251.00;;;;2070469;28;20211;-50
2021/01/03 01:06:23;;;;;;;7.90;7.20;;;;;16.80;100257.00;;;;2071129;28;20669;-50
2021/01/03 01:07:23;;;;;;;7.10;6.47;;;;;16.80;100255.00;;;;2070697;28;20528;-51
2021/01/03 01:08:24;;;;;;;7.83;7.13;;;;;16.80;100262.00;;;;2070898;28;20273;-50
2021/01/03 01:09:24;;;;;;;7.10;6.50;;;;;16.80;100256.00;;;;2071089;28;20217;-50
2021/01/03 01:10:27;;;;;;;7.10;6.50;;;;;16.80;100258.00;;;;2070997;28;20702;-51
2021/01/03 01:11:28;;;;;;;7.30;6.65;;;;;16.80;100262.00;;;;2070730;28;20242;-50
2021/01/03 01:12:28;;;;;;;7.20;6.60;;;;;16.80;100261.00;;;;2070902;28;20590;-51
2021/01/03 01:13:29;;;;;;;7.60;6.90;;;;;16.80;100257.00;;;;2070982;28;20895;-51
2021/01/03 01:14:29;;;;;;;7.20;6.60;;;;;16.80;100256.00;;;;2070265;28;20211;-52
2021/01/03 01:15:30;;;;;;;6.60;6.00;;;;;16.80;100257.00;;;;2070438;28;20213;-50
2021/01/03 01:16:31;;;;;;;7.90;7.20;;;;;16.80;100252.00;;;;2070996;28;20298;-50
2021/01/03 01:17:31;;;;;;;7.10;6.50;;;;;16.80;100265.00;;;;2069835;28;20206;-51
2021/01/03 01:18:31;;;;;;;7.47;6.77;;;;;16.80;100258.00;;;;2070330;28;20222;-51
2021/01/03 01:19:32;;;;;;;7.17;6.57;;;;;16.80;100260.00;;;;2065840;28;20249;-50
2021/01/03 01:20:33;;;;;;;7.20;6.57;;;;;16.80;100263.00;;;;2070990;28;20822;-51
2021/01/03 01:21:33;;;;;;;7.10;6.50;;;;;16.80;100251.00;;;;2070841;28;20203;-50
2021/01/03 01:22:33;;;;;;;7.27;6.57;;;;;16.80;100254.00;;;;2070139;28;20207;-52
2021/01/03 01:23:34;;;;;;;7.90;7.10;;;;;16.80;100255.00;;;;2070813;28;20229;-51
2021/01/03 01:24:34;;;;;;;7.40;6.80;;;;;16.80;100252.00;;;;2070287;28;20217;-51
2021/01/03 01:25:35;;;;;;;7.63;7.03;;;;;16.80;100250.00;;;;2070593;28;20772;-50
2021/01/03 01:26:35;;;;;;;7.00;6.40;;;;;16.80;100257.00;;;;2071088;28;20707;-50
2021/01/03 01:27:35;;;;;;;7.10;6.50;;;;;16.80;100260.00;;;;2070775;28;20210;-53
2021/01/03 01:28:36;;;;;;;7.50;6.80;;;;;16.80;100256.00;;;;2070812;28;20210;-51
2021/01/03 01:29:36;;;;;;;7.70;7.10;;;;;16.80;100251.00;;;;2070764;28;20620;-52
2021/01/03 01:30:37;;;;;;;7.60;6.90;;;;;16.80;100258.00;;;;2071119;28;20918;-51
2021/01/03 01:31:37;;;;;;;6.73;6.13;;;;;16.80;100261.00;;;;2070365;28;20302;-50
2021/01/03 01:32:38;;;;;;;7.37;6.77;;;;;16.80;100264.00;;;;2070256;28;20316;-52
2021/01/03 01:33:38;;;;;;;7.40;6.63;;;;;16.80;100265.00;;;;2070930;28;20219;-51
2021/01/03 01:34:38;;;;;;;6.90;6.30;;;;;16.80;100266.00;;;;2070555;28;20257;-51
2021/01/03 01:35:39;;;;;;;7.60;6.90;;;;;16.80;100270.00;;;;2070810;28;20221;-52
2021/01/03 01:36:39;;;;;;;6.67;6.17;;;;;16.80;100264.00;;;;2069746;28;20655;-49
2021/01/03 01:37:39;;;;;;;7.07;6.47;;;;;16.80;100266.00;;;;2070040;28;20301;-50
2021/01/03 01:38:40;;;;;;;7.80;7.10;;;;;16.80;100258.00;;;;2070750;28;20203;-53
2021/01/03 01:39:40;;;;;;;7.37;6.67;;;;;16.80;100264.00;;;;2070809;28;20289;-51
2021/01/03 01:40:41;;;;;;;7.23;6.60;;;;;16.80;100265.00;;;;2070994;28;20203;-50
2021/01/03 01:41:41;;;;;;;7.43;6.80;;;;;16.80;100266.00;;;;2070950;28;20214;-50
2021/01/03 01:42:42;;;;;;;7.60;6.90;;;;;16.80;100257.00;;;;2070947;28;20310;-50
2021/01/03 01:43:42;;;;;;;7.13;6.53;;;;;16.80;100258.00;;;;2063531;28;20246;-51
2021/01/03 01:44:43;;;;;;;6.60;6.00;;;;;16.80;100257.00;;;;2077840;28;20495;-51
2021/01/03 01:45:44;;;;;;;7.20;6.70;;;;;16.80;100263.00;;;;2075864;28;20218;-50
2021/01/03 01:46:52;;;;;;;6.63;6.07;;;;;16.80;100255.00;;;;2070671;28;20222;-52
2021/01/03 01:47:57;;;;;;;7.10;6.40;;;;;16.80;100257.00;;;;2070159;28;20803;-52
2021/01/03 01:48:57;;;;;;;7.38;6.70;;;;;16.80;100262.00;;;;2062377;28;20223;-50
2021/01/03 01:50:00;;;;;;;7.27;6.57;;;;;16.80;100257.00;;;;2070140;28;20223;-51
2021/01/03 01:51:11;;;;;;;7.22;6.63;;;;;16.80;100261.00;;;;2062158;28;20223;-50
2021/01/03 01:52:12;;;;;;;6.88;6.28;;;;;16.70;100269.00;;;;2063370;28;20211;-51
2021/01/03 01:53:26;;;;;;;7.20;6.60;;;;;16.80;100267.00;;;;2069918;28;20280;-50
2021/01/03 01:54:30;;;;;;;7.13;6.50;;;;;16.80;100262.00;;;;2070511;28;20473;-51
2021/01/03 01:55:34;;;;;;;7.40;6.70;;;;;16.80;100266.00;;;;2070111;28;20253;-50
2021/01/03 01:56:49;;;;;;;7.50;6.90;;;;;16.80;100271.00;;;;2070096;28;20207;-50
2021/01/03 01:58:11;;;;;;;6.88;6.28;;;;;16.80;100275.00;;;;2069888;28;20255;-50
2021/01/03 01:59:31;;;;;;;7.60;6.93;;;;;16.80;100265.00;;;;2064460;28;20245;-51
2021/01/03 02:00:32;;;;;;;7.22;6.63;;;;;16.80;100269.00;;;;2064327;28;20260;-51
2021/01/03 02:01:38;;;;;;;7.40;6.70;;;;;16.80;100272.00;;;;2070019;28;20252;-51
2021/01/03 02:03:03;;;;;;;7.15;6.55;;;;;16.80;100269.00;;;;2062663;28;20222;-50
2021/01/03 02:04:12;;;;;;;7.07;6.38;;;;;16.80;100268.00;;;;2053375;28;20651;-51
2021/01/03 02:05:15;;;;;;;7.53;6.82;;;;;16.80;100266.00;;;;2060800;28;20253;-50
2021/01/03 02:06:45;;;;;;;7.00;6.40;;;;;16.80;100265.00;;;;2061924;28;20715;-51
2021/01/03 02:07:57;;;;;;;6.45;5.95;;;;;16.80;100267.00;;;;2068610;28;20218;-51
2021/01/03 02:09:01;;;;;;;7.10;6.50;;;;;16.80;100272.00;;;;2060727;28;20223;-52
2021/01/03 02:10:25;;;;;;;7.47;6.88;;;;;16.80;100270.00;;;;2061014;28;20612;-51
2021/01/03 02:11:26;;;;;;;6.97;6.43;;;;;16.80;100266.00;;;;2064807;28;20223;-52
2021/01/03 02:12:30;;;;;;;7.70;7.00;;;;;16.80;100267.00;;;;2070027;28;20214;-51
2021/01/03 02:13:38;;;;;;;7.13;6.53;;;;;16.80;100269.00;;;;2069657;28;20226;-50
2021/01/03 02:14:39;;;;;;;7.03;6.35;;;;;16.80;100261.00;;;;2069603;28;20210;-51
2021/01/03 02:15:42;;;;;;;6.97;6.37;;;;;16.80;100256.00;;;;2070099;28;20203;-51
2021/01/03 02:16:42;;;;;;;7.63;7.03;;;;;16.80;100263.00;;;;2070271;28;20207;-50
2021/01/03 02:17:44;;;;;;;6.80;6.20;;;;;16.80;100261.00;;;;2056850;28;20212;-51
2021/01/03 02:18:44;;;;;;;7.05;6.45;;;;;16.80;100249.00;;;;2051481;28;20212;-50
2021/01/03 02:19:45;;;;;;;7.30;6.70;;;;;16.80;100256.00;;;;2048296;28;20741;-50
2021/01/03 02:20:58;;;;;;;7.93;7.23;;;;;16.80;100256.00;;;;2058278;28;20298;-50
2021/01/03 02:22:23;;;;;;;8.07;7.03;;;;;16.80;100257.00;;;;2063125;28;20238;-50
2021/01/03 02:23:48;;;;;;;7.68;7.00;;;;;16.80;100247.00;;;;2063909;28;20210;-50
2021/01/03 02:25:03;;;;;;;7.05;6.45;;;;;16.80;100252.00;;;;2058165;28;20297;-50
2021/01/03 02:26:03;;;;;;;7.47;6.78;;;;;16.70;100247.00;;;;2069803;28;20280;-50
2021/01/03 02:27:08;;;;;;;7.47;6.87;;;;;16.70;100252.00;;;;2069779;28;20261;-53
2021/01/03 02:28:19;;;;;;;7.00;6.50;;;;;16.80;100255.00;;;;2055264;28;20252;-50
2021/01/03 02:29:20;;;;;;;7.40;6.80;;;;;16.80;100257.00;;;;2059175;28;20220;-52
2021/01/03 02:30:20;;;;;;;6.87;6.27;;;;;16.80;100259.00;;;;2054688;28;20263;-50
2021/01/03 02:31:25;;;;;;;7.80;7.10;;;;;16.80;100245.00;;;;2046708;28;20229;-51
2021/01/03 02:32:25;;;;;;;7.88;7.18;;;;;16.80;100257.00;;;;2056351;28;20250;-51
2021/01/03 02:33:37;;;;;;;7.33;6.73;;;;;16.80;100256.00;;;;2071245;28;20631;-53
2021/01/03 02:34:43;;;;;;;6.80;6.28;;;;;16.80;100249.00;;;;2063243;28;20242;-51
2021/01/03 02:35:44;;;;;;;7.13;6.53;;;;;16.80;100257.00;;;;2074762;28;20764;-50
2021/01/03 02:36:50;;;;;;;7.97;7.17;;;;;16.80;100254.00;;;;2063520;28;20199;-50
2021/01/03 02:37:50;;;;;;;7.30;6.65;;;;;16.80;100251.00;;;;2055421;28;20984;-51
2021/01/03 02:39:29;;;;;;;7.87;7.27;;;;;16.80;100243.00;;;;2058108;28;20212;-51
2021/01/03 02:40:29;;;;;;;7.07;6.47;;;;;16.80;100250.00;;;;2070151;28;20222;-51
2021/01/03 02:41:30;;;;;;;7.40;6.80;;;;;16.80;100250.00;;;;2064128;28;20271;-52
2021/01/03 02:42:32;;;;;;;6.60;6.00;;;;;16.80;100247.00;;;;2063949;28;20215;-51
2021/01/03 02:43:33;;;;;;;7.30;6.60;;;;;16.80;100254.00;;;;2063683;28;20216;-51
2021/01/03 02:44:33;;;;;;;7.43;6.83;;;;;16.70;100250.00;;;;2063344;28;20697;-51
2021/01/03 02:45:33;;;;;;;8.00;7.20;;;;;16.70;100242.00;;;;2063992;28;21036;-50
2021/01/03 02:46:34;;;;;;;7.10;6.50;;;;;16.80;100241.00;;;;2064121;28;20601;-51
2021/01/03 02:47:35;;;;;;;7.25;6.65;;;;;16.80;100244.00;;;;2063790;28;20318;-50
2021/01/03 02:48:35;;;;;;;7.27;6.57;;;;;16.80;100246.00;;;;2063978;28;20215;-52
2021/01/03 02:49:36;;;;;;;6.83;6.30;;;;;16.80;100251.00;;;;2063987;28;20306;-51
2021/01/03 02:50:36;;;;;;;6.90;6.30;;;;;16.80;100243.00;;;;2063967;28;20214;-50
2021/01/03 02:51:37;;;;;;;7.60;6.90;;;;;16.80;100246.00;;;;2063889;28;20214;-52
2021/01/03 02:52:41;;;;;;;7.38;6.72;;;;;16.80;100245.00;;;;2054762;28;20208;-51
2021/01/03 02:53:42;;;;;;;7.28;6.68;;;;;16.70;100244.00;;;;2055662;28;20212;-50
2021/01/03 02:54:42;;;;;;;7.53;6.90;;;;;16.70;100239.00;;;;2063077;28;20211;-50
2021/01/03 02:55:42;;;;;;;7.63;6.93;;;;;16.70;100242.00;;;;2063066;28;20219;-50
2021/01/03 02:56:44;;;;;;;6.87;6.27;;;;;16.70;100246.00;;;;2063865;28;20207;-53
2021/01/03 02:57:44;;;;;;;6.85;6.30;;;;;16.70;100249.00;;;;2063681;28;20211;-49
2021/01/03 02:58:45;;;;;;;7.20;6.60;;;;;16.70;100243.00;;;;2063849;28;20206;-52
2021/01/03 02:59:45;;;;;;;7.40;6.80;;;;;16.70;100239.00;;;;2063809;28;20215;-51
2021/01/03 03:00:45;;;;;;;6.90;6.20;;;;;16.70;100243.00;;;;2063916;28;20203;-52
2021/01/03 03:01:46;;;;;;;6.73;6.13;;;;;16.70;100240.00;;;;2063846;28;20273;-51
2021/01/03 03:02:47;;;;;;;7.93;7.27;;;;;16.70;100236.00;;;;2063765;28;20215;-50
2021/01/03 03:03:47;;;;;;;6.95;6.35;;;;;16.70;100236.00;;;;2063884;28;20226;-53
2021/01/03 03:04:47;;;;;;;7.10;6.50;;;;;16.80;100239.00;;;;2062941;28;20286;-51
2021/01/03 03:05:48;;;;;;;6.80;6.20;;;;;16.70;100241.00;;;;2063754;28;20226;-51
2021/01/03 03:06:48;;;;;;;7.63;7.00;;;;;16.70;100236.00;;;;2063705;28;20951;-51
2021/01/03 03:07:48;;;;;;;6.77;6.17;;;;;16.80;100244.00;;;;2063459;28;20604;-51
2021/01/03 03:08:49;;;;;;;7.47;6.87;;;;;16.70;100245.00;;;;2063843;28;20223;-51
2021/01/03 03:09:49;;;;;;;6.97;6.37;;;;;16.80;100249.00;;;;2063580;28;20274;-51
2021/01/03 03:10:49;;;;;;;7.67;7.07;;;;;16.80;100247.00;;;;2063750;28;20216;-50
2021/01/03 03:11:50;;;;;;;7.77;7.07;;;;;16.80;100244.00;;;;2063819;28;20218;-51
2021/01/03 03:12:52;;;;;;;7.03;6.40;;;;;16.80;100240.00;;;;2063695;28;20232;-50
2021/01/03 03:13:52;;;;;;;7.03;6.43;;;;;16.80;100242.00;;;;2063722;28;20250;-50
2021/01/03 03:14:52;;;;;;;7.37;6.73;;;;;16.80;100251.00;;;;2063247;28;20298;-50
2021/01/03 03:15:52;;;;;;;7.43;6.83;;;;;16.80;100246.00;;;;2063512;28;20220;-50
2021/01/03 03:16:57;;;;;;;7.23;6.63;;;;;16.80;100238.00;;;;2063702;28;20222;-50
2021/01/03 03:17:57;;;;;;;7.40;6.75;;;;;16.80;100239.00;;;;2063672;28;20219;-50
2021/01/03 03:18:57;;;;;;;7.40;6.70;;;;;16.80;100239.00;;;;2063850;28;20219;-52
2021/01/03 03:19:58;;;;;;;7.00;6.30;;;;;16.80;100242.00;;;;2063778;28;20222;-51
2021/01/03 03:20:58;;;;;;;7.70;7.00;;;;;16.80;100230.00;;;;2063754;28;20215;-51
2021/01/03 03:21:58;;;;;;;7.57;6.87;;;;;16.80;100229.00;;;;2063649;28;20211;-51
2021/01/03 03:22:59;;;;;;;6.90;6.30;;;;;16.80;100235.00;;;;2061602;28;20282;-51
2021/01/03 03:23:59;;;;;;;7.33;6.73;;;;;16.80;100235.00;;;;2063525;28;20306;-51
2021/01/03 03:24:59;;;;;;;7.17;6.57;;;;;16.80;100232.00;;;;2062081;28;20211;-51
2021/01/03 03:26:00;;;;;;;7.43;6.73;;;;;16.80;100232.00;;;;2063761;28;20207;-51
2021/01/03 03:27:01;;;;;;;7.33;6.63;;;;;16.80;100225.00;;;;2063448;28;20226;-51
2021/01/03 03:28:01;;;;;;;7.45;6.75;;;;;16.80;100230.00;;;;2063530;28;20215;-50
2021/01/03 03:29:02;;;;;;;7.10;6.57;;;;;16.70;100230.00;;;;2063696;28;20215;-52
2021/01/03 03:30:04;;;;;;;7.27;6.67;;;;;16.70;100237.00;;;;2063528;28;20228;-51
2021/01/03 03:31:05;;;;;;;7.60;6.90;;;;;16.70;100230.00;;;;2063716;28;20219;-50
2021/01/03 03:32:05;;;;;;;6.90;6.30;;;;;16.70;100227.00;;;;2063660;28;20914;-51
2021/01/03 03:33:05;;;;;;;7.50;6.80;;;;;16.80;100225.00;;;;2063509;28;20215;-52
2021/01/03 03:34:06;;;;;;;6.97;6.37;;;;;16.70;100222.00;;;;2063323;28;21053;-53
2021/01/03 03:35:09;;;;;;;7.67;7.00;;;;;16.70;100228.00;;;;2062502;28;20215;-53
2021/01/03 03:36:09;;;;;;;7.80;7.10;;;;;16.80;100221.00;;;;2061546;28;20215;-52
2021/01/03 03:37:10;;;;;;;6.90;6.30;;;;;16.80;100226.00;;;;2062881;28;20298;-50
2021/01/03 03:38:10;;;;;;;7.40;6.80;;;;;16.70;100214.00;;;;2061858;28;20290;-52
2021/01/03 03:39:11;;;;;;;6.70;6.20;;;;;16.70;100225.00;;;;2062559;28;20211;-52
2021/01/03 03:40:12;;;;;;;7.10;6.50;;;;;16.70;100217.00;;;;2062921;28;20695;-50
2021/01/03 03:41:24;;;;;;;7.47;6.87;;;;;16.70;100213.00;;;;2062645;28;20835;-52
2021/01/03 03:42:24;;;;;;;7.25;6.65;;;;;16.80;100219.00;;;;2063040;28;20505;-52
2021/01/03 03:43:24;;;;;;;7.53;6.83;;;;;16.80;100218.00;;;;2062941;28;20354;-52
2021/01/03 03:44:25;;;;;;;8.03;7.23;;;;;16.70;100222.00;;;;2062692;28;20211;-51
2021/01/03 03:45:25;;;;;;;6.80;6.30;;;;;16.70;100220.00;;;;2063021;28;20218;-51
2021/01/03 03:46:26;;;;;;;7.53;6.93;;;;;16.80;100218.00;;;;2063637;28;20307;-53
2021/01/03 03:47:27;;;;;;;8.03;7.37;;;;;16.80;100212.00;;;;2063524;28;20290;-52
2021/01/03 03:48:28;;;;;;;7.22;6.65;;;;;16.80;100211.00;;;;2063469;28;20209;-51
2021/01/03 03:49:29;;;;;;;6.50;6.00;;;;;16.80;100215.00;;;;2063537;28;20229;-50
2021/01/03 03:50:29;;;;;;;7.97;7.37;;;;;16.70;100206.00;;;;2076083;28;20221;-51
2021/01/03 03:51:29;;;;;;;7.63;7.03;;;;;16.70;100214.00;;;;2079102;28;20524;-51
2021/01/03 03:52:30;;;;;;;7.10;6.40;;;;;16.80;100217.00;;;;2064378;28;20222;-50
2021/01/03 03:53:30;;;;;;;7.10;6.50;;;;;16.70;100212.00;;;;2063287;28;20294;-51
2021/01/03 03:54:30;;;;;;;6.90;6.30;;;;;16.80;100210.00;;;;2062881;28;20700;-51
2021/01/03 03:55:31;;;;;;;7.37;6.77;;;;;16.80;100215.00;;;;2063164;28;20644;-51
2021/01/03 03:56:31;;;;;;;7.60;7.00;;;;;16.70;100217.00;;;;2063393;28;20223;-51
2021/01/03 03:57:31;;;;;;;7.10;6.50;;;;;16.70;100219.00;;;;2063095;28;20299;-50
2021/01/03 03:58:32;;;;;;;7.30;6.70;;;;;16.80;100214.00;;;;2063510;28;20247;-50
2021/01/03 03:59:32;;;;;;;6.10;5.60;;;;;16.80;100212.00;;;;2063616;28;20215;-51
2021/01/03 04:00:32;;;;;;;7.37;6.77;;;;;16.80;100230.00;;;;2063366;28;20739;-51
2021/01/03 04:01:37;;;;;;;6.90;6.40;;;;;16.80;100215.00;;;;2063496;28;20219;-52
2021/01/03 04:02:40;;;;;;;7.32;6.63;;;;;16.70;100208.00;;;;2063344;28;20247;-50
2021/01/03 04:03:41;;;;;;;7.95;7.30;;;;;16.70;100215.00;;;;2063017;28;20643;-51
2021/01/03 04:04:43;;;;;;;7.10;6.50;;;;;16.70;100214.00;;;;2062522;28;20211;-52
2021/01/03 04:05:45;;;;;;;7.65;6.95;;;;;16.70;100217.00;;;;2063263;28;20218;-50
2021/01/03 04:06:45;;;;;;;7.22;6.63;;;;;16.70;100210.00;;;;2063455;28;20281;-51
2021/01/03 04:07:45;;;;;;;7.03;6.43;;;;;16.70;100213.00;;;;2062943;28;20281;-52
2021/01/03 04:08:46;;;;;;;6.90;6.30;;;;;16.70;100206.00;;;;2063199;28;21017;-52
2021/01/03 04:09:46;;;;;;;6.77;6.17;;;;;16.70;100213.00;;;;2063436;28;20809;-52
2021/01/03 04:10:47;;;;;;;6.80;6.30;;;;;16.70;100208.00;;;;2063079;28;20718;-51
2021/01/03 04:11:50;;;;;;;6.83;6.27;;;;;16.70;100214.00;;;;2063010;28;20681;-53
2021/01/03 04:12:50;;;;;;;7.65;7.05;;;;;16.70;100203.00;;;;2063262;28;20215;-50
2021/01/03 04:13:50;;;;;;;7.40;6.80;;;;;16.70;100218.00;;;;2063394;28;20335;-51
2021/01/03 04:14:51;;;;;;;7.40;6.70;;;;;16.70;100203.00;;;;2062632;28;20270;-50
2021/01/03 04:15:51;;;;;;;7.57;6.87;;;;;16.70;100205.00;;;;2063448;28;20215;-51
2021/01/03 04:16:54;;;;;;;7.00;6.40;;;;;16.70;100203.00;;;;2062247;28;20219;-52
2021/01/03 04:17:54;;;;;;;7.88;7.18;;;;;16.70;100206.00;;;;2063278;28;20226;-50
2021/01/03 04:18:54;;;;;;;7.50;6.90;;;;;16.70;100212.00;;;;2063315;28;20222;-50
2021/01/03 04:19:55;;;;;;;7.57;6.97;;;;;16.70;100194.00;;;;2063349;28;20589;-52
2021/01/03 04:20:55;;;;;;;7.00;6.40;;;;;16.70;100211.00;;;;2063201;28;20229;-50
2021/01/03 04:22:00;;;;;;;6.83;6.27;;;;;16.60;100212.00;;;;2063432;28;20227;-53
2021/01/03 04:23:00;;;;;;;7.30;6.70;;;;;16.70;100212.00;;;;2062775;28;20627;-51
2021/01/03 04:24:01;;;;;;;7.17;6.67;;;;;16.70;100212.00;;;;2063164;28;20215;-51
2021/01/03 04:25:01;;;;;;;7.03;6.43;;;;;16.70;100217.00;;;;2062508;28;20580;-50
2021/01/03 04:26:01;;;;;;;6.90;6.40;;;;;16.70;100215.00;;;;2062625;28;20243;-49
2021/01/03 04:27:04;;;;;;;7.37;6.77;;;;;16.70;100218.00;;;;2063148;28;22269;-52
2021/01/03 04:28:05;;;;;;;7.28;6.68;;;;;16.70;100212.00;;;;2063064;28;20270;-50
2021/01/03 04:29:05;;;;;;;7.20;6.60;;;;;16.70;100213.00;;;;2063196;28;20259;-51
2021/01/03 04:30:07;;;;;;;6.50;5.90;;;;;16.70;100230.00;;;;2063093;28;20318;-50
2021/01/03 04:31:07;;;;;;;6.60;6.00;;;;;16.80;100206.00;;;;2063169;28;20219;-50
2021/01/03 04:32:09;;;;;;;7.30;6.70;;;;;16.80;100219.00;;;;2062606;28;20218;-51
2021/01/03 04:33:09;;;;;;;6.85;6.25;;;;;16.70;100216.00;;;;2062283;28;20591;-52
2021/01/03 04:34:10;;;;;;;7.40;6.77;;;;;16.70;100235.00;;;;2062996;28;20250;-51
2021/01/03 04:35:10;;;;;;;7.00;6.40;;;;;16.70;100225.00;;;;2062439;28;20216;-52
2021/01/03 04:36:15;;;;;;;6.43;5.93;;;;;16.70;100225.00;;;;2063304;28;20215;-51
2021/01/03 04:37:17;;;;;;;6.70;6.15;;;;;16.70;100223.00;;;;2062644;28;20503;-50
2021/01/03 04:38:17;;;;;;;7.25;6.70;;;;;16.70;100217.00;;;;2062737;28;20351;-51
2021/01/03 04:39:18;;;;;;;7.40;6.80;;;;;16.70;100216.00;;;;2063147;28;20484;-50
2021/01/03 04:40:24;;;;;;;7.87;7.17;;;;;16.70;100215.00;;;;2062915;28;20688;-52
2021/01/03 04:41:25;;;;;;;7.47;6.88;;;;;16.70;100223.00;;;;2063152;28;20211;-51
2021/01/03 04:42:29;;;;;;;7.30;6.70;;;;;16.70;100220.00;;;;2063331;28;20752;-52
2021/01/03 04:43:30;;;;;;;6.93;6.32;;;;;16.70;100221.00;;;;2063117;28;20212;-50
2021/01/03 04:44:46;;;;;;;6.37;5.77;;;;;16.70;100220.00;;;;2062862;28;20215;-50
2021/01/03 04:45:47;;;;;;;6.80;6.20;;;;;16.80;100222.00;;;;2078547;28;20209;-53
2021/01/03 04:46:48;;;;;;;6.37;5.87;;;;;16.80;100220.00;;;;2062038;28;20265;-51
2021/01/03 04:47:57;;;;;;;6.77;6.27;;;;;16.80;100223.00;;;;2053884;28;20200;-50
2021/01/03 04:48:58;;;;;;;7.05;6.35;;;;;16.70;100218.00;;;;2072631;28;20210;-50
2021/01/03 04:50:03;;;;;;;6.33;5.80;;;;;16.80;100218.00;;;;2062044;28;20245;-51
2021/01/03 04:51:15;;;;;;;7.57;6.95;;;;;16.70;100213.00;;;;2056499;28;20231;-50
2021/01/03 04:52:38;;;;;;;6.25;5.75;;;;;16.70;100219.00;;;;2054180;28;20779;-52
2021/01/03 04:53:48;;;;;;;7.20;6.60;;;;;16.70;100216.00;;;;2062751;28;20222;-50
2021/01/03 04:54:53;;;;;;;6.32;5.80;;;;;16.70;100224.00;;;;2054855;28;21200;-53
2021/01/03 04:56:19;;;;;;;6.82;6.32;;;;;16.70;100221.00;;;;2062662;28;20227;-51
2021/01/03 04:57:29;;;;;;;7.07;6.47;;;;;16.70;100224.00;;;;2062554;28;20302;-51
2021/01/03 04:58:35;;;;;;;6.85;6.25;;;;;16.70;100224.00;;;;2065887;28;20215;-51
2021/01/03 04:59:46;;;;;;;6.50;6.00;;;;;16.70;100225.00;;;;2055043;28;20319;-52
2021/01/03 05:00:53;;;;;;;6.88;6.38;;;;;16.70;100222.00;;;;2047357;28;20209;-52
2021/01/03 05:02:15;;;;;;;7.13;6.53;;;;;16.70;100228.00;;;;2057138;28;20657;-51
2021/01/03 05:03:57;;;;;;;6.88;6.28;;;;;16.70;100218.00;;;;2065005;28;20711;-53
2021/01/03 05:05:06;;;;;;;7.15;6.55;;;;;16.80;100227.00;;;;2069775;28;20218;-51
2021/01/03 05:06:11;;;;;;;6.72;6.13;;;;;16.70;100221.00;;;;2071224;28;20335;-51
2021/01/03 05:07:18;;;;;;;6.70;6.20;;;;;16.70;100215.00;;;;2062837;28;20216;-52
2021/01/03 05:08:40;;;;;;;6.55;6.05;;;;;16.70;100225.00;;;;2070525;28;20237;-51
2021/01/03 05:09:41;;;;;;;6.38;5.88;;;;;16.70;100226.00;;;;2070169;28;20221;-51
2021/01/03 05:10:41;;;;;;;7.10;6.50;;;;;16.70;100225.00;;;;2070163;28;20242;-52